createdAt,value
2019-01-08T00:00:19.927Z,20.43
2019-01-08T00:02:51.055Z,20.70
2019-01-08T00:05:22.407Z,18.50
2019-01-08T00:07:54.857Z,17.63
2019-01-08T00:10:26.135Z,17.50
2019-01-08T00:12:57.170Z,15.13
2019-01-08T00:15:29.733Z,13.20
2019-01-08T00:18:01.228Z,11.37
2019-01-08T00:20:33.291Z,9.40
2019-01-08T00:23:03.074Z,7.23
2019-01-08T00:25:34.309Z,7.50
2019-01-08T00:28:05.413Z,6.10
2019-01-08T00:30:36.446Z,5.63
2019-01-08T00:33:06.973Z,6.27
2019-01-08T00:35:38.126Z,5.00
2019-01-08T00:38:11.037Z,4.73
2019-01-08T00:40:42.245Z,4.87
2019-01-08T00:43:15.092Z,5.03
2019-01-08T00:45:48.598Z,5.60
2019-01-08T00:48:19.114Z,5.63
2019-01-08T00:50:50.292Z,5.60
2019-01-08T00:53:21.487Z,6.03
2019-01-08T00:55:53.801Z,6.27
2019-01-08T00:58:24.977Z,5.67
2019-01-08T01:00:56.183Z,5.87
2019-01-08T01:03:27.385Z,5.60
2019-01-08T01:05:59.364Z,5.37
2019-01-08T01:08:31.333Z,5.10
2019-01-08T01:11:05.118Z,5.67
2019-01-08T01:13:37.263Z,4.50
2019-01-08T01:16:08.397Z,4.77
2019-01-08T01:18:39.534Z,4.70
2019-01-08T01:21:10.997Z,4.80
2019-01-08T01:23:43.125Z,4.33
2019-01-08T01:26:14.340Z,4.43
2019-01-08T01:28:47.147Z,4.37
2019-01-08T01:31:18.249Z,4.50
2019-01-08T01:33:52.039Z,4.40
2019-01-08T01:36:23.243Z,3.83
2019-01-08T01:38:54.497Z,4.47
2019-01-08T01:41:24.686Z,4.20
2019-01-08T01:43:56.139Z,4.47
2019-01-08T01:46:29.076Z,4.80
2019-01-08T01:49:00.279Z,4.67
2019-01-08T01:51:30.422Z,4.67
2019-01-08T01:54:01.651Z,4.70
2019-01-08T01:56:34.144Z,4.77
2019-01-08T01:59:08.667Z,5.43
2019-01-08T02:01:39.512Z,5.00
2019-01-08T02:04:10.649Z,4.63
2019-01-08T02:06:41.786Z,4.30
2019-01-08T02:09:12.925Z,5.00
2019-01-08T02:11:44.061Z,5.03
2019-01-08T02:14:15.243Z,4.27
2019-01-08T02:16:46.335Z,4.37
2019-01-08T02:19:18.213Z,4.90
2019-01-08T02:21:49.272Z,5.03
2019-01-08T02:24:21.462Z,6.50
2019-01-08T02:26:52.657Z,4.80
2019-01-08T02:29:23.726Z,5.73
2019-01-08T02:31:55.173Z,5.17
2019-01-08T02:34:24.952Z,4.77
2019-01-08T02:36:56.058Z,4.53
2019-01-08T02:39:26.253Z,6.00
2019-01-08T02:41:56.974Z,5.17
2019-01-08T02:44:27.444Z,4.60
2019-01-08T02:46:57.690Z,5.63
2019-01-08T02:49:29.165Z,5.13
2019-01-08T02:51:59.946Z,4.70
2019-01-08T02:54:30.913Z,4.17
2019-01-08T02:57:02.990Z,4.53
2019-01-08T02:59:37.287Z,4.60
2019-01-08T03:02:09.653Z,4.17
2019-01-08T03:04:42.250Z,5.27
2019-01-08T03:07:13.459Z,4.27
2019-01-08T03:09:45.916Z,5.03
2019-01-08T03:12:18.483Z,4.53
2019-01-08T03:14:50.330Z,4.70
2019-01-08T03:17:19.911Z,3.93
2019-01-08T03:19:51.060Z,4.40
2019-01-08T03:22:22.195Z,5.77
2019-01-08T03:24:51.963Z,4.30
2019-01-08T03:27:22.149Z,4.07
2019-01-08T03:29:54.319Z,4.10
2019-01-08T03:32:25.984Z,4.40
2019-01-08T03:34:58.923Z,3.63
2019-01-08T03:37:30.896Z,4.87
2019-01-08T03:40:03.458Z,4.73
2019-01-08T03:42:34.082Z,4.33
2019-01-08T03:45:05.209Z,5.00
2019-01-08T03:47:36.905Z,5.50
2019-01-08T03:50:10.453Z,6.30
2019-01-08T03:52:40.722Z,7.23
2019-01-08T03:55:11.854Z,8.10
2019-01-08T03:57:48.266Z,10.30
2019-01-08T04:00:20.877Z,9.77
2019-01-08T04:02:53.104Z,10.70
2019-01-08T04:05:23.857Z,10.77
2019-01-08T04:07:55.090Z,8.70
2019-01-08T04:10:26.289Z,9.20
2019-01-08T04:12:57.426Z,8.60
2019-01-08T04:15:28.563Z,9.83
2019-01-08T04:17:59.749Z,8.97
2019-01-08T04:20:30.982Z,10.57
2019-01-08T04:23:01.185Z,8.70
2019-01-08T04:25:31.334Z,10.53
2019-01-08T04:28:03.654Z,9.90
2019-01-08T04:30:33.837Z,8.07
2019-01-08T04:33:04.129Z,9.07
2019-01-08T04:35:35.193Z,9.13
2019-01-08T04:38:05.491Z,10.73
2019-01-08T04:40:35.767Z,10.33
2019-01-08T04:43:06.823Z,10.87
2019-01-08T04:45:39.385Z,9.00
2019-01-08T04:48:11.287Z,8.23
2019-01-08T04:50:41.378Z,7.53
2019-01-08T04:53:12.841Z,8.03
2019-01-08T04:55:45.016Z,8.37
2019-01-08T04:58:17.578Z,9.30
2019-01-08T05:00:49.654Z,7.90
2019-01-08T05:03:20.177Z,7.20
2019-01-08T05:05:50.372Z,6.07
2019-01-08T05:08:24.453Z,4.90
2019-01-08T05:10:55.557Z,4.83
2019-01-08T05:13:26.695Z,4.67
2019-01-08T05:15:57.217Z,6.80
2019-01-08T05:18:28.057Z,6.23
2019-01-08T05:20:58.342Z,5.33
2019-01-08T05:23:29.465Z,5.40
2019-01-08T05:26:00.535Z,5.77
2019-01-08T05:28:30.296Z,6.07
2019-01-08T05:31:00.402Z,5.70
2019-01-08T05:33:32.394Z,5.30
2019-01-08T05:36:02.590Z,5.90
2019-01-08T05:38:32.850Z,5.83
2019-01-08T05:41:04.037Z,6.00
2019-01-08T05:43:34.289Z,5.70
2019-01-08T05:46:04.577Z,4.83
2019-01-08T05:48:36.054Z,4.33
2019-01-08T05:51:06.248Z,4.73
2019-01-08T05:53:40.321Z,4.60
2019-01-08T05:56:10.494Z,4.10
2019-01-08T05:58:41.946Z,4.20
2019-01-08T06:01:12.102Z,3.13
2019-01-08T06:03:42.341Z,3.53
2019-01-08T06:06:12.241Z,3.10
2019-01-08T06:08:43.249Z,3.00
2019-01-08T06:11:14.424Z,3.93
2019-01-08T06:13:44.718Z,2.70
2019-01-08T06:16:15.001Z,3.20
2019-01-08T06:18:48.669Z,3.47
2019-01-08T06:21:20.771Z,4.40
2019-01-08T06:23:50.498Z,4.00
2019-01-08T06:26:22.367Z,4.70
2019-01-08T06:28:52.653Z,5.00
2019-01-08T06:31:22.727Z,6.37
2019-01-08T06:33:54.779Z,4.40
2019-01-08T06:36:27.698Z,4.43
2019-01-08T06:38:59.015Z,7.57
2019-01-08T06:41:30.149Z,5.00
2019-01-08T06:44:01.322Z,5.13
2019-01-08T06:46:32.494Z,5.37
2019-01-08T06:49:04.918Z,5.00
2019-01-08T06:51:35.301Z,4.70
2019-01-08T06:54:06.525Z,3.37
2019-01-08T06:56:38.496Z,2.00
2019-01-08T06:59:11.341Z,2.93
2019-01-08T07:01:41.001Z,3.53
2019-01-08T07:04:14.030Z,3.10
2019-01-08T07:06:45.171Z,3.10
2019-01-08T07:09:16.310Z,2.80
2019-01-08T07:11:47.338Z,3.80
2019-01-08T07:14:18.442Z,4.00
2019-01-08T07:16:53.483Z,5.03
2019-01-08T07:19:24.685Z,4.33
2019-01-08T07:21:56.145Z,4.43
2019-01-08T07:24:28.886Z,8.20
2019-01-08T07:26:59.149Z,5.53
2019-01-08T07:29:30.273Z,6.00
2019-01-08T07:32:02.287Z,4.83
2019-01-08T07:34:33.490Z,4.80
2019-01-08T07:37:04.233Z,5.10
2019-01-08T07:39:35.274Z,4.63
2019-01-08T07:42:08.373Z,5.87
2019-01-08T07:44:40.695Z,4.67
2019-01-08T07:47:11.929Z,5.20
2019-01-08T07:49:42.146Z,5.00
2019-01-08T07:52:13.378Z,5.87
2019-01-08T07:54:44.619Z,6.83
2019-01-08T07:57:15.117Z,5.97
2019-01-08T07:59:46.251Z,4.40
2019-01-08T08:02:17.390Z,4.30
2019-01-08T08:04:48.485Z,4.80
2019-01-08T08:07:18.906Z,4.77
2019-01-08T08:09:49.206Z,5.47
2019-01-08T08:12:20.135Z,4.47
2019-01-08T08:14:51.294Z,4.60
2019-01-08T08:17:22.399Z,3.20
2019-01-08T08:22:44.726Z,4.30
2019-01-08T08:25:15.781Z,4.07
2019-01-08T08:27:45.966Z,4.23
2019-01-08T08:30:17.093Z,4.70
2019-01-08T08:32:48.183Z,4.13
2019-01-08T08:35:20.301Z,4.00
2019-01-08T08:37:51.349Z,4.47
2019-01-08T08:40:21.670Z,4.13
2019-01-08T08:42:52.996Z,4.30
2019-01-08T08:45:24.159Z,4.50
2019-01-08T08:47:54.532Z,4.27
2019-01-08T08:50:26.878Z,4.93
2019-01-08T08:52:57.945Z,4.40
2019-01-08T08:55:28.262Z,5.80
2019-01-08T08:57:59.314Z,4.70
2019-01-08T09:00:29.582Z,4.33
2019-01-08T09:03:02.479Z,3.87
2019-01-08T09:05:35.053Z,4.33
2019-01-08T09:08:06.164Z,4.87
2019-01-08T09:10:38.017Z,5.47
2019-01-08T09:13:08.202Z,4.67
2019-01-08T09:15:43.329Z,4.53
2019-01-08T09:18:14.575Z,3.93
2019-01-08T09:20:45.804Z,4.93
2019-01-08T09:23:19.355Z,4.80
2019-01-08T09:25:51.326Z,4.50
2019-01-08T09:28:21.445Z,4.90
2019-01-08T09:30:52.255Z,4.37
2019-01-08T09:33:23.262Z,5.43
2019-01-08T09:35:54.863Z,5.57
2019-01-08T09:38:24.913Z,4.87
2019-01-08T09:40:57.186Z,4.27
2019-01-08T09:43:28.147Z,4.83
2019-01-08T09:45:58.422Z,5.03
2019-01-08T09:48:29.965Z,4.93
2019-01-08T09:51:03.011Z,4.23
2019-01-08T09:53:33.217Z,4.90
2019-01-08T09:56:04.337Z,4.80
2019-01-08T09:58:34.540Z,4.77
2019-01-08T10:01:08.080Z,4.80
2019-01-08T10:03:39.216Z,5.47
2019-01-08T10:06:08.979Z,5.80
2019-01-08T10:08:39.167Z,5.90
2019-01-08T10:11:09.316Z,6.23
2019-01-08T10:13:39.045Z,6.70
2019-01-08T10:16:10.201Z,6.30
2019-01-08T10:18:40.373Z,6.93
2019-01-08T10:21:13.006Z,4.80
2019-01-08T10:23:43.061Z,5.73
2019-01-08T10:26:13.269Z,5.93
2019-01-08T10:28:43.454Z,5.80
2019-01-08T10:31:14.685Z,5.93
2019-01-08T10:33:45.858Z,5.40
2019-01-08T10:36:18.150Z,6.27
2019-01-08T10:38:50.606Z,6.03
2019-01-08T10:41:21.122Z,6.73
2019-01-08T10:43:52.186Z,6.23
2019-01-08T10:46:23.228Z,5.80
2019-01-08T10:48:55.602Z,6.53
2019-01-08T10:51:25.761Z,6.40
2019-01-08T10:53:58.606Z,5.70
2019-01-08T10:56:28.905Z,6.17
2019-01-08T10:59:07.397Z,6.83
2019-01-08T11:01:31.601Z,5.40
2019-01-08T11:04:02.413Z,5.10
2019-01-08T11:06:33.453Z,5.60
2019-01-08T11:09:05.194Z,4.93
2019-01-08T11:11:36.354Z,4.97
2019-01-08T11:14:08.430Z,6.13
2019-01-08T11:16:41.448Z,5.10
2019-01-08T11:19:12.590Z,6.07
2019-01-08T11:21:43.721Z,5.50
2019-01-08T11:24:14.321Z,5.53
2019-01-08T11:26:45.579Z,6.33
2019-01-08T11:29:17.369Z,5.50
2019-01-08T11:31:49.198Z,4.67
2019-01-08T11:34:19.485Z,6.07
2019-01-08T11:36:51.829Z,5.30
2019-01-08T11:39:22.022Z,3.83
2019-01-08T11:41:54.165Z,4.20
2019-01-08T11:44:24.528Z,4.33
2019-01-08T11:46:54.743Z,4.33
2019-01-08T11:49:27.552Z,4.40
2019-01-08T11:51:59.485Z,4.30
2019-01-08T11:54:30.554Z,4.93
2019-01-08T11:57:01.621Z,4.60
2019-01-08T11:59:32.731Z,4.90
2019-01-08T12:02:02.977Z,4.27
2019-01-08T12:04:33.238Z,3.37
2019-01-08T12:09:54.538Z,3.07
2019-01-08T12:12:25.909Z,3.23
2019-01-08T12:14:57.095Z,3.93
2019-01-08T12:17:28.261Z,4.00
2019-01-08T12:20:00.310Z,3.90
2019-01-08T12:22:31.441Z,4.27
2019-01-08T12:25:03.102Z,4.20
2019-01-08T12:30:24.517Z,5.73
2019-01-08T12:32:55.938Z,5.00
2019-01-08T12:35:26.457Z,5.00
2019-01-08T12:37:58.669Z,5.30
2019-01-08T12:40:28.942Z,5.67
2019-01-08T12:43:00.072Z,5.27
2019-01-08T12:45:31.239Z,5.43
2019-01-08T12:48:02.491Z,6.57
2019-01-08T12:50:33.582Z,5.10
2019-01-08T12:53:04.654Z,5.40
2019-01-08T12:55:35.861Z,5.00
2019-01-08T12:58:06.994Z,5.70
2019-01-08T13:00:38.515Z,5.37
2019-01-08T13:03:12.915Z,5.23
2019-01-08T13:05:44.913Z,4.97
2019-01-08T13:08:17.481Z,5.13
2019-01-08T13:10:48.333Z,4.57
2019-01-08T13:13:19.454Z,5.20
2019-01-08T13:15:50.594Z,4.40
2019-01-08T13:18:21.118Z,4.60
2019-01-08T13:20:51.977Z,4.10
2019-01-08T13:23:24.070Z,5.00
2019-01-08T13:25:55.288Z,5.07
2019-01-08T13:28:28.282Z,4.73
2019-01-08T13:30:58.469Z,4.30
2019-01-08T13:33:29.702Z,5.13
2019-01-08T13:35:59.383Z,4.70
2019-01-08T13:38:31.701Z,5.50
2019-01-08T13:41:01.857Z,5.27
2019-01-08T13:43:33.033Z,4.53
2019-01-08T13:46:05.590Z,4.83
2019-01-08T13:48:35.625Z,4.43
2019-01-08T13:51:07.870Z,3.77
2019-01-08T13:56:30.922Z,2.80
2019-01-08T13:59:04.613Z,3.20
2019-01-08T14:01:36.990Z,3.60
2019-01-08T14:04:07.165Z,3.43
2019-01-08T14:06:37.067Z,3.27
2019-01-08T14:09:08.098Z,2.93
2019-01-08T14:11:40.493Z,3.20
2019-01-08T14:14:11.298Z,3.67
2019-01-08T14:16:42.250Z,3.80
2019-01-08T14:19:12.851Z,4.03
2019-01-08T14:21:43.859Z,4.30
2019-01-08T14:24:14.489Z,4.53
2019-01-08T14:26:48.009Z,4.20
2019-01-08T14:29:19.150Z,4.37
2019-01-08T14:31:50.426Z,3.27
2019-01-08T14:34:21.469Z,3.30
2019-01-08T14:36:55.419Z,3.17
2019-01-08T14:39:26.446Z,3.47
2019-01-08T14:41:59.295Z,3.40
2019-01-08T14:44:30.346Z,3.37
2019-01-08T14:47:03.173Z,3.10
2019-01-08T14:49:36.140Z,2.87
2019-01-08T14:52:06.093Z,3.03
2019-01-08T14:54:37.346Z,2.97
2019-01-08T14:57:09.715Z,3.50
2019-01-08T14:59:40.730Z,3.20
2019-01-08T15:02:10.637Z,3.40
2019-01-08T15:04:40.522Z,3.10
2019-01-08T15:07:10.598Z,3.90
2019-01-08T15:09:41.721Z,3.90
2019-01-08T15:12:12.862Z,3.17
2019-01-08T15:14:43.619Z,3.20
2019-01-08T15:17:16.178Z,3.60
2019-01-08T15:19:47.157Z,3.73
2019-01-08T15:22:17.151Z,3.53
2019-01-08T15:24:47.908Z,3.93
2019-01-08T15:27:21.286Z,4.13
2019-01-08T15:29:51.521Z,3.57
2019-01-08T15:32:21.382Z,3.87
2019-01-08T15:34:51.494Z,4.27
2019-01-08T15:37:23.602Z,5.10
2019-01-08T15:39:53.307Z,4.30
2019-01-08T15:42:25.053Z,4.03
2019-01-08T15:44:57.902Z,3.80
2019-01-08T15:47:32.329Z,4.00
2019-01-08T15:50:03.811Z,4.37
2019-01-08T15:52:34.915Z,4.10
2019-01-08T15:55:06.925Z,4.10
2019-01-08T15:57:37.654Z,4.40
2019-01-08T16:00:10.359Z,4.60
2019-01-08T16:02:42.893Z,3.60
2019-01-08T16:05:15.121Z,3.93
2019-01-08T16:07:45.516Z,4.20
2019-01-08T16:10:18.029Z,3.73
2019-01-08T16:12:50.948Z,4.33
2019-01-08T16:15:21.791Z,4.73
2019-01-08T16:17:51.960Z,5.13
2019-01-08T16:20:24.776Z,4.27
2019-01-08T16:22:57.393Z,4.17
2019-01-08T16:25:28.472Z,4.20
2019-01-08T16:27:59.502Z,3.73
2019-01-08T16:30:30.602Z,4.20
2019-01-08T16:33:01.835Z,3.80
2019-01-08T16:35:32.617Z,4.07
2019-01-08T16:38:03.557Z,4.53
2019-01-08T16:40:35.533Z,4.10
2019-01-08T16:43:06.655Z,4.10
2019-01-08T16:45:37.775Z,3.90
2019-01-08T16:48:07.931Z,3.87
2019-01-08T16:50:39.527Z,4.40
2019-01-08T16:53:11.422Z,3.33
2019-01-08T16:55:43.309Z,4.47
2019-01-08T16:58:15.280Z,3.83
2019-01-08T17:00:45.335Z,4.23
2019-01-08T17:03:24.507Z,4.00
2019-01-08T17:05:48.338Z,3.33
2019-01-08T17:08:18.537Z,4.00
2019-01-08T17:10:52.617Z,3.93
2019-01-08T17:13:23.827Z,3.63
2019-01-08T17:15:53.781Z,4.23
2019-01-08T17:18:24.846Z,3.83
2019-01-08T17:20:56.959Z,3.40
2019-01-08T17:23:28.038Z,3.53
2019-01-08T17:25:59.112Z,4.03
2019-01-08T17:28:29.297Z,3.87
2019-01-08T17:30:59.504Z,3.97
2019-01-08T17:33:33.973Z,4.33
2019-01-08T17:36:03.369Z,4.00
2019-01-08T17:38:33.538Z,3.80
2019-01-08T17:41:04.565Z,4.50
2019-01-08T17:43:35.943Z,4.37
2019-01-08T17:46:06.221Z,4.17
2019-01-08T17:48:37.286Z,4.37
2019-01-08T17:51:09.349Z,5.20
2019-01-08T17:53:40.554Z,5.00
2019-01-08T17:56:10.750Z,5.23
2019-01-08T17:58:43.906Z,4.30
2019-01-08T18:01:20.893Z,4.07
2019-01-08T18:03:51.055Z,5.00
2019-01-08T18:06:20.738Z,4.07
2019-01-08T18:08:51.863Z,4.20
2019-01-08T18:11:22.076Z,4.23
2019-01-08T18:13:54.949Z,4.03
2019-01-08T18:16:27.721Z,4.10
2019-01-08T18:18:57.925Z,4.83
2019-01-08T18:21:30.056Z,4.10
2019-01-08T18:24:01.197Z,4.50
2019-01-08T18:26:31.404Z,4.47
2019-01-08T18:29:02.557Z,4.27
2019-01-08T18:31:34.009Z,4.50
2019-01-08T18:34:06.406Z,4.20
2019-01-08T18:36:37.973Z,3.93
2019-01-08T18:39:09.160Z,4.17
2019-01-08T18:41:40.201Z,4.47
2019-01-08T18:44:11.350Z,4.40
2019-01-08T18:46:44.558Z,4.37
2019-01-08T18:49:15.706Z,3.83
2019-01-08T18:51:46.726Z,4.10
2019-01-08T18:54:17.171Z,3.90
2019-01-08T18:56:47.870Z,3.73
2019-01-08T18:59:19.298Z,4.40
2019-01-08T19:01:51.206Z,4.77
2019-01-08T19:04:24.166Z,4.53
2019-01-08T19:06:54.059Z,3.70
2019-01-08T19:09:27.681Z,3.17
2019-01-08T19:11:58.477Z,3.40
2019-01-08T19:14:31.457Z,3.03
2019-01-08T19:17:02.226Z,3.03
2019-01-08T19:19:34.662Z,2.53
2019-01-08T19:22:06.406Z,2.40
2019-01-08T19:24:37.299Z,3.73
2019-01-08T19:27:09.680Z,2.83
2019-01-08T19:29:39.658Z,3.50
2019-01-08T19:32:10.799Z,3.83
2019-01-08T19:34:40.561Z,4.20
2019-01-08T19:37:10.766Z,4.33
2019-01-08T19:39:41.769Z,4.60
2019-01-08T19:42:12.802Z,5.10
2019-01-08T19:44:44.477Z,4.47
2019-01-08T19:47:15.602Z,5.33
2019-01-08T19:49:46.682Z,4.40
2019-01-08T19:52:17.397Z,4.30
2019-01-08T19:54:48.015Z,5.03
2019-01-08T19:57:21.286Z,4.83
2019-01-08T19:59:51.528Z,4.47
2019-01-08T20:02:21.299Z,4.30
2019-01-08T20:04:52.143Z,5.00
2019-01-08T20:07:21.889Z,4.90
2019-01-08T20:09:53.774Z,3.97
2019-01-08T20:12:24.877Z,4.80
2019-01-08T20:14:55.717Z,3.47
2019-01-08T20:17:25.825Z,6.30
2019-01-08T20:19:56.981Z,4.77
2019-01-08T20:22:28.626Z,4.73
2019-01-08T20:25:01.098Z,4.03
2019-01-08T20:27:32.570Z,35.10
2019-01-08T20:30:03.434Z,4.00
2019-01-08T20:32:33.266Z,3.70
2019-01-08T20:35:03.149Z,3.27
2019-01-08T20:37:35.322Z,3.50
2019-01-08T20:40:05.931Z,3.43
2019-01-08T20:42:37.386Z,3.67
2019-01-08T20:45:08.521Z,3.83
2019-01-08T20:47:42.571Z,3.20
2019-01-08T20:50:13.855Z,3.80
2019-01-08T20:52:44.472Z,3.73
2019-01-08T20:55:14.233Z,3.47
2019-01-08T20:57:44.019Z,4.47
2019-01-08T21:00:14.511Z,3.80
2019-01-08T21:02:45.670Z,3.90
2019-01-08T21:05:15.552Z,3.37
2019-01-08T21:07:46.754Z,4.53
2019-01-08T21:10:17.523Z,3.93
2019-01-08T21:12:49.870Z,4.17
2019-01-08T21:15:21.325Z,3.63
2019-01-08T21:17:52.903Z,3.50
2019-01-08T21:20:24.874Z,3.10
2019-01-08T21:22:55.978Z,3.73
2019-01-08T21:25:25.441Z,3.53
2019-01-08T21:27:55.356Z,3.77
2019-01-08T21:30:26.066Z,3.27
2019-01-08T21:32:57.011Z,3.00
2019-01-08T21:35:28.057Z,3.33
2019-01-08T21:37:57.801Z,3.10
2019-01-08T21:40:29.366Z,3.00
2019-01-08T21:43:00.477Z,2.83
2019-01-08T21:45:31.765Z,2.90
2019-01-08T21:48:02.017Z,2.80
2019-01-08T21:50:33.160Z,3.20
2019-01-08T21:53:04.410Z,3.33
2019-01-08T21:55:38.533Z,2.93
2019-01-08T21:58:09.358Z,2.93
2019-01-08T22:00:39.078Z,2.87
2019-01-08T22:03:10.094Z,3.80
2019-01-08T22:05:41.710Z,2.93
2019-01-08T22:08:12.718Z,3.77
2019-01-08T22:10:42.594Z,3.20
2019-01-08T22:13:13.540Z,3.03
2019-01-08T22:15:43.706Z,2.97
2019-01-08T22:18:14.561Z,3.67
2019-01-08T22:20:45.172Z,3.13
2019-01-08T22:23:16.055Z,3.20
2019-01-08T22:25:46.069Z,3.30
2019-01-08T22:28:16.913Z,3.33
2019-01-08T22:30:47.898Z,3.60
2019-01-08T22:33:22.920Z,2.93
2019-01-08T22:35:54.249Z,3.47
2019-01-08T22:38:26.021Z,3.43
2019-01-08T22:40:56.773Z,3.50
2019-01-08T22:43:27.473Z,3.50
2019-01-08T22:45:58.215Z,3.10
2019-01-08T22:48:30.606Z,2.83
2019-01-08T22:51:01.286Z,3.30
2019-01-08T22:53:33.709Z,3.67
2019-01-08T22:56:03.686Z,3.20
2019-01-08T22:58:34.718Z,3.87
2019-01-08T23:01:07.462Z,3.20
2019-01-08T23:03:38.369Z,2.73
2019-01-08T23:06:08.741Z,3.20
2019-01-08T23:08:39.765Z,2.80
2019-01-08T23:11:09.549Z,2.70
2019-01-08T23:13:39.747Z,2.80
2019-01-08T23:16:11.689Z,2.70
2019-01-08T23:18:42.457Z,2.60
2019-01-08T23:21:12.228Z,2.67
2019-01-08T23:23:44.940Z,3.27
2019-01-08T23:26:16.717Z,3.80
2019-01-08T23:28:47.641Z,3.47
2019-01-08T23:31:18.962Z,3.07
2019-01-08T23:33:49.813Z,2.60
2019-01-08T23:36:20.909Z,3.00
2019-01-08T23:39:01.657Z,3.00
2019-01-08T23:41:31.842Z,2.80
2019-01-08T23:44:04.238Z,3.27
2019-01-08T23:46:35.178Z,3.07
2019-01-08T23:49:05.269Z,3.10
2019-01-08T23:51:36.545Z,2.50
2019-01-08T23:54:06.704Z,3.30
2019-01-08T23:56:37.834Z,3.10
2019-01-08T23:59:08.030Z,3.50
